Enka Village, North Carolina
Current Conditions -  °F | °C
As of 5:54 PM on Thursday 20 Nov 2014 (Local Time) from KAVL Reporting Station
Clear Clear  
Wind Chill: 41°   Ceiling: Unl
Heat Index: 45°   Visibility: 10mi
Dew Point: 18°   Wind: 7mph
Humidity: 34%   Direction: 340°NNW
Pressure: 30.09"   Gusts: NA
Location:  35.4572°N, 82.7746°W
Report Text: KAVL 202254Z 34006KT 10SM CLR 07/M08 A3009 RMK AO2 SLP196 T00721078
Loading
Personal Weather Stations






























Interactive Weather Map New forecast layout! Learn more

10-Day Weather Forecast

Advertisements
Track Severe Weather on mobile